Time;durP1;ratioP1;P1;durP2;ratioP2;P2;SDS_P1;SDS_P2;PMS_P1;PMS_P2;Temp;Humidity;BMP_temperature;BMP_pressure;BME280_temperature;BME280_humidity;BME280_pressure;Samples;Min_cycle;Max_cycle;Signal;HPM_P1;HPM_P2
2023/09/17 00:01:01;;;;;;;10.27;5.70;;;;;;;;;;5104628;27;20082;-68
2023/09/17 00:03:32;;;;;;;11.90;5.80;;;;;;;;;;5085696;28;20539;-68
2023/09/17 00:06:00;;;;;;;8.65;5.13;;;;;;;;;;5080159;28;20044;-68
2023/09/17 00:08:29;;;;;;;10.20;6.28;;;;;;;;;;5092489;28;20125;-70
2023/09/17 00:10:58;;;;;;;8.63;5.57;;;;;;;;;;5094791;28;20320;-69
2023/09/17 00:13:26;;;;;;;9.52;5.45;;;;;;;;;;5096916;28;20052;-68
2023/09/17 00:15:54;;;;;;;11.18;5.55;;;;;;;;;;5084861;28;20056;-68
2023/09/17 00:18:23;;;;;;;10.73;5.78;;;;;;;;;;5090189;28;20140;-68
2023/09/17 00:20:53;;;;;;;11.20;6.05;;;;;;;;;;5093561;28;20473;-68
2023/09/17 00:23:21;;;;;;;10.70;5.53;;;;;;;;;;5090209;28;20578;-66
2023/09/17 00:25:49;;;;;;;8.32;5.50;;;;;;;;;;5080312;28;20072;-66
2023/09/17 00:28:18;;;;;;;9.15;5.38;;;;;;;;;;5084927;28;20044;-66
2023/09/17 00:30:46;;;;;;;8.15;5.18;;;;;;;;;;5080119;28;20098;-66
2023/09/17 00:33:15;;;;;;;9.27;4.88;;;;;;;;;;5093353;28;20659;-66
2023/09/17 00:35:44;;;;;;;7.30;5.13;;;;;;;;;;5094906;28;20106;-66
2023/09/17 00:38:14;;;;;;;11.10;5.10;;;;;;;;;;5098146;28;20067;-66
2023/09/17 00:40:42;;;;;;;7.38;4.78;;;;;;;;;;5097130;28;20051;-66
2023/09/17 00:43:13;;;;;;;9.10;5.07;;;;;;;;;;5100887;28;20039;-66
2023/09/17 00:45:42;;;;;;;11.60;5.95;;;;;;;;;;5089951;28;20083;-66
2023/09/17 00:48:11;;;;;;;12.38;5.80;;;;;;;;;;5087388;28;20048;-66
2023/09/17 00:50:39;;;;;;;8.63;5.38;;;;;;;;;;5084771;28;20432;-66
2023/09/17 00:53:08;;;;;;;9.10;5.65;;;;;;;;;;5101089;28;20234;-66
2023/09/17 00:55:38;;;;;;;8.27;5.40;;;;;;;;;;5088989;28;20086;-66
2023/09/17 00:58:07;;;;;;;10.60;6.25;;;;;;;;;;5083663;28;20047;-66
2023/09/17 01:00:38;;;;;;;8.48;5.45;;;;;;;;;;5098037;28;20047;-66
2023/09/17 01:03:07;;;;;;;10.85;5.80;;;;;;;;;;5101366;28;20051;-66
2023/09/17 01:05:38;;;;;;;8.57;5.53;;;;;;;;;;5084725;28;20047;-66
2023/09/17 01:08:07;;;;;;;10.45;5.57;;;;;;;;;;5093197;28;20055;-66
2023/09/17 01:10:36;;;;;;;10.32;5.63;;;;;;;;;;5088366;28;20044;-66
2023/09/17 01:13:06;;;;;;;9.27;5.45;;;;;;;;;;5107104;28;20043;-66
2023/09/17 01:15:34;;;;;;;11.20;6.28;;;;;;;;;;5084641;28;20048;-66
2023/09/17 01:18:04;;;;;;;11.27;5.72;;;;;;;;;;5106104;28;20605;-66
2023/09/17 01:20:34;;;;;;;9.80;5.75;;;;;;;;;;5077059;28;20048;-66
2023/09/17 01:23:05;;;;;;;14.32;6.10;;;;;;;;;;5078804;28;20071;-66
2023/09/17 01:25:42;;;;;;;9.32;5.45;;;;;;;;;;5077357;28;20105;-66
2023/09/17 01:28:13;;;;;;;10.23;5.78;;;;;;;;;;5108659;28;20350;-66
2023/09/17 01:30:42;;;;;;;10.07;5.20;;;;;;;;;;5090888;28;20074;-66
2023/09/17 01:33:10;;;;;;;9.18;5.68;;;;;;;;;;5084104;28;20049;-66
2023/09/17 01:35:43;;;;;;;10.13;5.65;;;;;;;;;;5099353;28;20126;-66
2023/09/17 01:38:14;;;;;;;11.50;5.95;;;;;;;;;;5075688;28;20052;-66
2023/09/17 01:40:48;;;;;;;9.32;6.03;;;;;;;;;;5084050;28;20536;-66
2023/09/17 01:43:19;;;;;;;12.13;5.60;;;;;;;;;;5087176;28;20043;-66
2023/09/17 01:45:47;;;;;;;9.50;5.82;;;;;;;;;;5087174;28;20047;-66
2023/09/17 01:48:17;;;;;;;8.93;6.30;;;;;;;;;;5089728;28;20100;-67
2023/09/17 01:50:47;;;;;;;9.95;6.15;;;;;;;;;;5083752;28;20052;-66
2023/09/17 01:53:16;;;;;;;10.23;5.53;;;;;;;;;;5090689;28;20221;-66
2023/09/17 01:55:45;;;;;;;10.88;5.70;;;;;;;;;;5078220;28;20044;-66
2023/09/17 01:58:13;;;;;;;9.35;5.32;;;;;;;;;;5083674;28;20109;-66
2023/09/17 02:00:43;;;;;;;9.45;5.30;;;;;;;;;;5086738;28;20497;-66
2023/09/17 02:03:11;;;;;;;10.10;5.65;;;;;;;;;;5097685;28;20303;-66
2023/09/17 02:05:40;;;;;;;13.32;5.65;;;;;;;;;;5095459;28;20467;-66
2023/09/17 02:08:08;;;;;;;9.77;5.35;;;;;;;;;;5075664;28;20048;-66
2023/09/17 02:10:36;;;;;;;9.80;5.75;;;;;;;;;;5096562;28;20048;-66
2023/09/17 02:13:05;;;;;;;9.45;6.10;;;;;;;;;;5084731;28;20140;-66
2023/09/17 02:15:34;;;;;;;11.35;6.13;;;;;;;;;;5104792;28;20096;-66
2023/09/17 02:18:05;;;;;;;11.18;6.55;;;;;;;;;;5103994;28;20093;-66
2023/09/17 02:20:33;;;;;;;10.73;6.15;;;;;;;;;;5089178;28;20044;-66
2023/09/17 02:23:01;;;;;;;9.48;5.65;;;;;;;;;;5100065;28;20051;-66
2023/09/17 02:25:30;;;;;;;10.65;6.03;;;;;;;;;;5083122;28;20473;-66
2023/09/17 02:27:58;;;;;;;9.90;6.38;;;;;;;;;;5098635;28;20495;-67
2023/09/17 02:30:28;;;;;;;10.13;6.10;;;;;;;;;;5083331;28;20048;-66
2023/09/17 02:32:56;;;;;;;16.30;6.20;;;;;;;;;;5094324;28;20126;-66
2023/09/17 02:35:26;;;;;;;10.18;6.22;;;;;;;;;;5088798;28;20109;-66
2023/09/17 02:37:55;;;;;;;10.57;6.00;;;;;;;;;;5101060;28;20140;-66
2023/09/17 02:40:24;;;;;;;9.25;5.18;;;;;;;;;;5086806;28;20055;-66
2023/09/17 02:42:53;;;;;;;8.68;5.65;;;;;;;;;;5111670;28;20420;-66
2023/09/17 02:45:21;;;;;;;12.38;5.80;;;;;;;;;;5090257;28;20496;-66
2023/09/17 02:47:51;;;;;;;8.02;5.05;;;;;;;;;;5084042;28;20040;-66
2023/09/17 02:50:19;;;;;;;9.38;6.00;;;;;;;;;;5082481;28;20055;-66
2023/09/17 02:52:49;;;;;;;8.00;5.20;;;;;;;;;;5094170;28;20049;-66
2023/09/17 02:55:18;;;;;;;10.43;5.53;;;;;;;;;;5075496;28;20510;-66
2023/09/17 02:57:48;;;;;;;11.95;5.60;;;;;;;;;;5089557;28;20090;-66
2023/09/17 03:00:17;;;;;;;9.43;5.60;;;;;;;;;;5091447;28;20036;-66
2023/09/17 03:02:47;;;;;;;9.57;6.03;;;;;;;;;;5109011;28;20047;-66
2023/09/17 03:05:17;;;;;;;11.75;5.85;;;;;;;;;;5078887;28;20143;-67
2023/09/17 03:07:45;;;;;;;9.30;5.68;;;;;;;;;;5090720;28;20048;-67
2023/09/17 03:10:18;;;;;;;7.95;5.05;;;;;;;;;;5095969;28;20510;-67
2023/09/17 03:12:47;;;;;;;8.57;5.57;;;;;;;;;;5081699;28;20532;-66
2023/09/17 03:15:15;;;;;;;8.32;6.13;;;;;;;;;;5078837;28;20048;-67
2023/09/17 03:17:44;;;;;;;8.48;5.40;;;;;;;;;;5097299;28;20044;-68
2023/09/17 03:20:18;;;;;;;7.93;5.15;;;;;;;;;;5075838;28;20040;-67
2023/09/17 03:22:46;;;;;;;11.43;5.65;;;;;;;;;;5079791;28;20439;-67
2023/09/17 03:25:16;;;;;;;9.18;5.28;;;;;;;;;;5089094;28;20052;-67
2023/09/17 03:27:45;;;;;;;10.25;5.18;;;;;;;;;;5075335;28;20054;-68
2023/09/17 03:30:14;;;;;;;8.27;4.60;;;;;;;;;;5086398;28;20404;-68
2023/09/17 03:32:43;;;;;;;9.52;5.18;;;;;;;;;;5102280;28;20040;-68
2023/09/17 03:35:29;;;;;;;9.57;5.65;;;;;;;;;;5104715;28;20047;-68
2023/09/17 03:37:57;;;;;;;8.57;4.72;;;;;;;;;;5091836;28;20102;-68
2023/09/17 03:40:27;;;;;;;8.70;5.50;;;;;;;;;;5092724;28;20481;-68
2023/09/17 03:42:55;;;;;;;9.20;5.07;;;;;;;;;;5098352;28;20048;-68
2023/09/17 03:45:24;;;;;;;8.57;5.05;;;;;;;;;;5095237;28;20505;-68
2023/09/17 03:47:52;;;;;;;10.70;5.32;;;;;;;;;;5093909;28;20083;-68
2023/09/17 03:50:21;;;;;;;10.57;4.75;;;;;;;;;;5085561;28;20043;-68
2023/09/17 03:52:54;;;;;;;8.93;4.53;;;;;;;;;;5087435;28;20109;-66
2023/09/17 03:55:23;;;;;;;8.00;4.68;;;;;;;;;;5096363;28;20052;-66
2023/09/17 03:57:53;;;;;;;6.03;3.97;;;;;;;;;;5090166;28;20051;-66
2023/09/17 04:00:23;;;;;;;10.98;4.88;;;;;;;;;;5087733;28;20079;-67
2023/09/17 04:02:52;;;;;;;11.38;5.35;;;;;;;;;;5095313;28;20048;-67
2023/09/17 04:05:21;;;;;;;9.20;4.82;;;;;;;;;;5094461;28;20048;-68
2023/09/17 04:07:49;;;;;;;8.13;3.95;;;;;;;;;;5093532;28;20049;-67
2023/09/17 04:10:19;;;;;;;10.55;5.25;;;;;;;;;;5099144;28;20036;-67
2023/09/17 04:12:48;;;;;;;10.07;4.40;;;;;;;;;;5082881;28;20060;-67
2023/09/17 04:15:20;;;;;;;7.55;5.05;;;;;;;;;;5077870;28;20056;-67
2023/09/17 04:17:49;;;;;;;9.68;4.53;;;;;;;;;;5091723;28;20046;-67
2023/09/17 04:20:18;;;;;;;7.82;4.72;;;;;;;;;;5093709;28;20089;-67
2023/09/17 04:22:48;;;;;;;8.63;4.72;;;;;;;;;;5100817;28;20136;-67
2023/09/17 04:25:18;;;;;;;9.77;5.13;;;;;;;;;;5085125;28;20043;-67
2023/09/17 04:27:47;;;;;;;6.70;4.60;;;;;;;;;;5094474;28;20393;-67
2023/09/17 04:30:18;;;;;;;8.05;4.30;;;;;;;;;;5085059;28;20435;-67
2023/09/17 04:32:47;;;;;;;11.57;4.32;;;;;;;;;;5076039;28;20052;-67
2023/09/17 04:35:17;;;;;;;8.15;5.20;;;;;;;;;;5071262;28;20055;-67
2023/09/17 04:37:47;;;;;;;8.98;4.78;;;;;;;;;;5076650;28;20080;-67
2023/09/17 04:40:15;;;;;;;8.00;3.95;;;;;;;;;;5075781;28;20047;-67
2023/09/17 04:42:44;;;;;;;6.90;4.28;;;;;;;;;;5089009;28;20067;-67
2023/09/17 04:45:13;;;;;;;8.82;4.70;;;;;;;;;;5106037;28;20551;-67
2023/09/17 04:47:43;;;;;;;7.32;4.28;;;;;;;;;;5094751;28;20051;-67
2023/09/17 04:50:12;;;;;;;7.10;4.60;;;;;;;;;;5086446;28;20131;-67
2023/09/17 04:52:41;;;;;;;7.80;4.10;;;;;;;;;;5099748;28;20411;-66
2023/09/17 04:55:09;;;;;;;6.88;4.22;;;;;;;;;;5097770;28;20055;-67
2023/09/17 04:57:38;;;;;;;7.32;4.13;;;;;;;;;;5084480;28;20523;-67
2023/09/17 05:00:11;;;;;;;8.00;4.18;;;;;;;;;;5079148;28;21176;-67
2023/09/17 05:02:39;;;;;;;6.95;4.43;;;;;;;;;;5078557;28;20106;-67
2023/09/17 05:05:10;;;;;;;7.97;4.68;;;;;;;;;;5072372;28;20100;-67
2023/09/17 05:07:39;;;;;;;6.97;4.22;;;;;;;;;;5098040;28;20073;-66
2023/09/17 05:10:09;;;;;;;6.75;4.07;;;;;;;;;;5082109;28;20080;-68
2023/09/17 05:12:37;;;;;;;8.40;4.18;;;;;;;;;;5086977;28;20053;-68
2023/09/17 05:15:06;;;;;;;6.93;4.45;;;;;;;;;;5086597;28;20121;-67
2023/09/17 05:17:34;;;;;;;6.60;4.43;;;;;;;;;;5085425;28;20554;-68
2023/09/17 05:20:05;;;;;;;7.25;4.43;;;;;;;;;;5078743;28;20043;-68
2023/09/17 05:22:35;;;;;;;6.68;4.60;;;;;;;;;;5075741;28;20044;-68
2023/09/17 05:25:06;;;;;;;5.82;3.58;;;;;;;;;;5079731;28;20045;-67
2023/09/17 05:27:35;;;;;;;6.57;3.97;;;;;;;;;;5066288;28;20626;-68
2023/09/17 05:30:03;;;;;;;7.60;4.32;;;;;;;;;;5101027;28;20494;-67
2023/09/17 05:32:32;;;;;;;9.63;4.05;;;;;;;;;;5090268;28;20501;-67
2023/09/17 05:35:02;;;;;;;8.95;4.00;;;;;;;;;;5088461;28;20458;-68
2023/09/17 05:37:31;;;;;;;6.47;4.03;;;;;;;;;;5089873;28;20036;-67
2023/09/17 05:40:01;;;;;;;6.13;3.67;;;;;;;;;;5095450;28;20139;-65
2023/09/17 05:42:30;;;;;;;8.15;3.83;;;;;;;;;;5093938;28;20451;-66
2023/09/17 05:44:59;;;;;;;5.82;3.90;;;;;;;;;;5115184;27;20108;-66
2023/09/17 05:47:27;;;;;;;6.80;3.90;;;;;;;;;;5109948;28;20051;-66
2023/09/17 05:49:57;;;;;;;8.38;4.00;;;;;;;;;;5106477;27;20048;-66
2023/09/17 05:52:26;;;;;;;5.88;3.97;;;;;;;;;;5105648;28;20076;-68
2023/09/17 05:54:54;;;;;;;13.50;3.80;;;;;;;;;;5085869;28;20044;-66
2023/09/17 05:57:24;;;;;;;7.45;4.20;;;;;;;;;;5104816;28;20475;-67
2023/09/17 05:59:52;;;;;;;6.25;3.83;;;;;;;;;;5094843;28;20059;-66
2023/09/17 06:02:21;;;;;;;6.90;4.32;;;;;;;;;;5113364;28;20433;-66
2023/09/17 06:04:53;;;;;;;10.52;4.47;;;;;;;;;;5110446;28;20123;-66
2023/09/17 06:07:21;;;;;;;6.68;4.32;;;;;;;;;;5083746;28;20482;-66
2023/09/17 06:09:50;;;;;;;10.43;4.53;;;;;;;;;;5092078;28;20050;-67
2023/09/17 06:12:18;;;;;;;8.32;4.05;;;;;;;;;;5077920;28;20500;-66
2023/09/17 06:14:48;;;;;;;6.80;3.72;;;;;;;;;;5087165;28;20051;-66
2023/09/17 06:17:16;;;;;;;7.05;4.60;;;;;;;;;;5088818;28;20128;-66
2023/09/17 06:19:45;;;;;;;6.88;4.07;;;;;;;;;;5095587;28;20052;-66
2023/09/17 06:22:13;;;;;;;6.15;3.95;;;;;;;;;;5096789;28;20411;-66
2023/09/17 06:24:41;;;;;;;9.95;4.47;;;;;;;;;;5085520;28;20622;-66
2023/09/17 06:27:10;;;;;;;9.13;4.00;;;;;;;;;;5091589;28;20097;-65
2023/09/17 06:29:38;;;;;;;7.43;3.83;;;;;;;;;;5092484;27;20440;-66
2023/09/17 06:32:08;;;;;;;8.45;4.30;;;;;;;;;;5086324;28;20926;-66
2023/09/17 06:34:37;;;;;;;8.73;4.38;;;;;;;;;;5080796;28;20472;-66
2023/09/17 06:37:06;;;;;;;7.78;4.00;;;;;;;;;;5075556;28;20067;-66
2023/09/17 06:39:35;;;;;;;5.70;3.88;;;;;;;;;;5084580;28;20060;-66
2023/09/17 06:42:03;;;;;;;5.88;3.63;;;;;;;;;;5074942;28;20048;-68
2023/09/17 06:44:32;;;;;;;6.30;3.80;;;;;;;;;;5078581;28;20578;-68
2023/09/17 06:47:00;;;;;;;7.20;4.03;;;;;;;;;;5081247;28;20451;-70
2023/09/17 06:49:30;;;;;;;6.90;4.15;;;;;;;;;;5078096;28;20047;-67
2023/09/17 06:51:58;;;;;;;8.00;4.10;;;;;;;;;;5077071;28;20055;-67
2023/09/17 06:54:27;;;;;;;9.90;3.88;;;;;;;;;;5079016;28;20066;-66
2023/09/17 06:56:55;;;;;;;5.68;3.78;;;;;;;;;;5079202;28;20508;-67
2023/09/17 06:59:24;;;;;;;5.32;3.45;;;;;;;;;;5080623;28;20452;-67
2023/09/17 07:01:53;;;;;;;5.20;3.60;;;;;;;;;;5077103;28;20044;-71
2023/09/17 07:04:21;;;;;;;6.45;4.10;;;;;;;;;;5073415;28;20048;-67
2023/09/17 07:06:51;;;;;;;5.88;3.60;;;;;;;;;;5076061;28;20050;-69
2023/09/17 07:09:20;;;;;;;4.47;3.28;;;;;;;;;;5077764;28;20131;-68
2023/09/17 07:11:48;;;;;;;6.03;3.65;;;;;;;;;;5095034;28;20476;-67
2023/09/17 07:14:16;;;;;;;6.53;3.88;;;;;;;;;;5089798;28;20074;-67
2023/09/17 07:16:45;;;;;;;6.20;3.90;;;;;;;;;;5108466;28;20371;-67
2023/09/17 07:19:14;;;;;;;6.13;4.32;;;;;;;;;;5084512;28;20048;-68
2023/09/17 07:21:43;;;;;;;7.88;3.90;;;;;;;;;;5074508;28;20152;-70
2023/09/17 07:24:13;;;;;;;6.00;3.72;;;;;;;;;;5079193;28;20482;-68
2023/09/17 07:26:41;;;;;;;5.68;3.65;;;;;;;;;;5080339;28;20044;-66
2023/09/17 07:29:10;;;;;;;5.35;3.63;;;;;;;;;;5087263;28;20040;-67
2023/09/17 07:31:39;;;;;;;7.53;3.97;;;;;;;;;;5054188;28;20072;-66
2023/09/17 07:34:08;;;;;;;6.43;4.20;;;;;;;;;;5058758;28;20052;-66
2023/09/17 07:36:36;;;;;;;7.05;3.40;;;;;;;;;;5057194;28;20337;-67
2023/09/17 07:39:05;;;;;;;8.07;3.90;;;;;;;;;;5059763;28;20456;-67
2023/09/17 07:41:35;;;;;;;5.55;3.45;;;;;;;;;;5062700;28;20052;-68
2023/09/17 07:44:03;;;;;;;8.65;4.15;;;;;;;;;;5058923;28;20098;-67
2023/09/17 07:46:32;;;;;;;5.07;3.38;;;;;;;;;;5054395;28;20045;-68
2023/09/17 07:49:01;;;;;;;4.75;3.30;;;;;;;;;;5055696;28;20044;-68
2023/09/17 07:51:29;;;;;;;5.32;3.25;;;;;;;;;;5059992;28;20105;-68
2023/09/17 07:53:58;;;;;;;8.05;3.50;;;;;;;;;;5053844;28;20295;-68
2023/09/17 07:56:26;;;;;;;6.78;4.03;;;;;;;;;;5064518;28;20474;-68
2023/09/17 07:58:56;;;;;;;9.70;3.40;;;;;;;;;;5057838;28;20473;-68
2023/09/17 08:01:24;;;;;;;6.30;4.05;;;;;;;;;;5058008;28;20452;-68
2023/09/17 08:03:53;;;;;;;4.43;3.20;;;;;;;;;;5059059;28;20044;-67
2023/09/17 08:06:22;;;;;;;6.13;3.38;;;;;;;;;;5053295;28;20055;-67
2023/09/17 08:08:51;;;;;;;4.85;3.08;;;;;;;;;;5053802;28;20552;-66
2023/09/17 08:11:21;;;;;;;4.22;3.05;;;;;;;;;;5049425;28;20041;-68
2023/09/17 08:13:50;;;;;;;4.85;3.20;;;;;;;;;;5052433;28;20040;-67
2023/09/17 08:16:20;;;;;;;6.78;3.60;;;;;;;;;;5059250;28;20052;-66
2023/09/17 08:18:49;;;;;;;4.53;2.78;;;;;;;;;;5045369;28;20094;-66
2023/09/17 08:21:17;;;;;;;6.15;3.17;;;;;;;;;;5049822;28;20045;-65
2023/09/17 08:23:47;;;;;;;8.68;4.30;;;;;;;;;;5053070;28;20474;-67
2023/09/17 08:26:16;;;;;;;4.28;2.88;;;;;;;;;;5062152;28;20136;-67
2023/09/17 08:28:45;;;;;;;5.47;3.30;;;;;;;;;;5057137;28;20048;-68
2023/09/17 08:31:14;;;;;;;5.43;3.40;;;;;;;;;;5058060;28;20052;-66
2023/09/17 08:33:45;;;;;;;4.68;3.35;;;;;;;;;;5049949;28;20044;-69
2023/09/17 08:36:15;;;;;;;5.97;3.17;;;;;;;;;;5050999;28;20080;-68
2023/09/17 08:38:44;;;;;;;6.78;3.10;;;;;;;;;;5062828;28;20056;-66
2023/09/17 08:41:13;;;;;;;5.28;2.90;;;;;;;;;;5051565;28;20075;-66
2023/09/17 08:43:43;;;;;;;6.22;2.83;;;;;;;;;;5051683;28;20126;-67
2023/09/17 08:46:11;;;;;;;4.30;2.58;;;;;;;;;;5054811;28;20114;-69
2023/09/17 08:48:40;;;;;;;5.93;2.83;;;;;;;;;;5055134;28;20056;-67
2023/09/17 08:51:11;;;;;;;4.03;2.63;;;;;;;;;;5050256;28;20116;-67
2023/09/17 08:53:41;;;;;;;4.65;2.55;;;;;;;;;;5045167;28;20497;-67
2023/09/17 08:56:13;;;;;;;3.85;2.53;;;;;;;;;;5048424;28;20053;-66
2023/09/17 08:58:45;;;;;;;4.65;2.42;;;;;;;;;;5057378;28;20088;-69
2023/09/17 09:01:15;;;;;;;3.30;2.17;;;;;;;;;;5072699;28;20056;-68
2023/09/17 09:03:44;;;;;;;3.58;2.65;;;;;;;;;;5097521;28;20055;-67
2023/09/17 09:06:16;;;;;;;5.68;2.90;;;;;;;;;;5091574;28;20048;-71
2023/09/17 09:08:46;;;;;;;4.38;2.60;;;;;;;;;;5083459;28;20066;-66
2023/09/17 09:11:15;;;;;;;4.22;2.60;;;;;;;;;;5086341;28;20556;-67
2023/09/17 09:13:44;;;;;;;4.75;2.40;;;;;;;;;;5085716;28;20062;-66
2023/09/17 09:16:13;;;;;;;5.13;2.60;;;;;;;;;;5088324;28;20049;-66
2023/09/17 09:18:41;;;;;;;4.70;2.20;;;;;;;;;;5070236;28;20052;-66
2023/09/17 09:21:10;;;;;;;4.72;2.58;;;;;;;;;;5075126;28;20056;-66
2023/09/17 09:23:40;;;;;;;4.13;2.53;;;;;;;;;;5091857;28;20370;-65
2023/09/17 09:26:08;;;;;;;3.28;2.50;;;;;;;;;;5093103;28;20048;-67
2023/09/17 09:28:37;;;;;;;3.47;2.40;;;;;;;;;;5080345;28;20090;-66
2023/09/17 09:31:05;;;;;;;3.50;2.42;;;;;;;;;;5085026;28;20435;-67
2023/09/17 09:33:35;;;;;;;3.42;2.20;;;;;;;;;;5082960;28;20047;-67
2023/09/17 09:36:05;;;;;;;10.93;2.80;;;;;;;;;;5084861;28;20127;-65
2023/09/17 09:38:34;;;;;;;4.68;2.40;;;;;;;;;;5099342;28;20052;-67
2023/09/17 09:41:04;;;;;;;4.43;2.35;;;;;;;;;;5086824;28;20356;-65
2023/09/17 09:43:33;;;;;;;6.75;2.40;;;;;;;;;;5086866;28;20044;-66
2023/09/17 09:46:02;;;;;;;5.15;2.30;;;;;;;;;;5075943;28;20130;-69
2023/09/17 09:48:31;;;;;;;4.00;2.63;;;;;;;;;;5071344;28;20060;-68
2023/09/17 09:51:00;;;;;;;9.80;2.67;;;;;;;;;;5083478;28;20060;-67
2023/09/17 09:53:28;;;;;;;3.05;1.95;;;;;;;;;;5073947;28;20337;-67
2023/09/17 09:55:57;;;;;;;4.53;2.53;;;;;;;;;;5073248;28;20045;-69
2023/09/17 09:58:27;;;;;;;3.95;2.58;;;;;;;;;;5079076;28;20299;-68
2023/09/17 10:00:55;;;;;;;3.67;2.80;;;;;;;;;;5082279;28;20040;-68
2023/09/17 10:03:23;;;;;;;3.75;2.10;;;;;;;;;;5094230;28;20472;-68
2023/09/17 10:05:52;;;;;;;3.80;2.58;;;;;;;;;;5086719;28;20044;-68
2023/09/17 10:08:22;;;;;;;3.78;2.45;;;;;;;;;;5078183;28;20117;-69
2023/09/17 10:10:51;;;;;;;4.47;2.38;;;;;;;;;;5079367;28;20059;-69
2023/09/17 10:13:19;;;;;;;4.80;2.60;;;;;;;;;;5087005;28;20043;-68
2023/09/17 10:15:49;;;;;;;3.47;2.35;;;;;;;;;;5086049;28;20052;-69
2023/09/17 10:18:18;;;;;;;4.88;2.60;;;;;;;;;;5096787;28;20706;-69
2023/09/17 10:20:48;;;;;;;4.85;2.47;;;;;;;;;;5085783;28;20488;-69
2023/09/17 10:23:17;;;;;;;4.72;2.63;;;;;;;;;;5100758;28;20075;-69
2023/09/17 10:25:47;;;;;;;4.22;2.38;;;;;;;;;;5092550;28;20093;-69
2023/09/17 10:28:17;;;;;;;6.93;2.53;;;;;;;;;;5108390;28;20126;-68
2023/09/17 10:30:45;;;;;;;4.28;2.50;;;;;;;;;;5093936;28;20059;-69
2023/09/17 10:33:16;;;;;;;3.65;2.60;;;;;;;;;;5090562;28;20060;-68
2023/09/17 10:35:45;;;;;;;4.97;2.88;;;;;;;;;;5098346;28;20089;-68
2023/09/17 10:38:13;;;;;;;5.38;2.72;;;;;;;;;;5112925;28;20059;-68
2023/09/17 10:40:43;;;;;;;2.70;2.33;;;;;;;;;;5098652;28;20043;-68
2023/09/17 10:43:12;;;;;;;3.85;2.53;;;;;;;;;;5082056;28;20346;-69
2023/09/17 10:45:42;;;;;;;4.47;2.55;;;;;;;;;;5088440;28;20047;-69
2023/09/17 10:48:11;;;;;;;4.70;2.63;;;;;;;;;;5090095;28;20498;-70
2023/09/17 10:50:42;;;;;;;3.65;2.80;;;;;;;;;;5092013;28;20043;-69
2023/09/17 10:53:11;;;;;;;3.75;2.75;;;;;;;;;;5092323;28;20055;-69
2023/09/17 10:55:41;;;;;;;6.28;2.60;;;;;;;;;;5097529;28;20043;-68
2023/09/17 10:58:14;;;;;;;5.65;2.50;;;;;;;;;;5100454;28;20055;-69
2023/09/17 11:00:43;;;;;;;4.45;2.83;;;;;;;;;;5091086;28;20087;-70
2023/09/17 11:03:15;;;;;;;3.30;2.50;;;;;;;;;;5082138;28;20041;-69
2023/09/17 11:05:45;;;;;;;4.72;2.13;;;;;;;;;;5090398;28;20055;-69
2023/09/17 11:08:13;;;;;;;3.13;2.55;;;;;;;;;;5091262;28;20056;-69
2023/09/17 11:10:42;;;;;;;2.75;2.22;;;;;;;;;;5099322;28;20562;-70
2023/09/17 11:13:12;;;;;;;4.65;2.88;;;;;;;;;;5086840;28;20073;-69
2023/09/17 11:15:41;;;;;;;4.47;2.80;;;;;;;;;;5078867;28;20044;-69
2023/09/17 11:18:10;;;;;;;3.60;2.58;;;;;;;;;;5087607;28;20075;-69
2023/09/17 11:20:54;;;;;;;3.53;2.38;;;;;;;;;;5099779;28;20382;-70
2023/09/17 11:23:36;;;;;;;3.38;2.20;;;;;;;;;;5111812;28;20071;-69
2023/09/17 11:26:04;;;;;;;3.58;2.35;;;;;;;;;;5084688;28;20452;-70
2023/09/17 11:28:36;;;;;;;3.60;2.53;;;;;;;;;;5104709;28;20043;-70
2023/09/17 11:31:09;;;;;;;3.38;2.35;;;;;;;;;;5096370;28;20417;-70
2023/09/17 11:33:38;;;;;;;5.45;2.53;;;;;;;;;;5103437;28;20063;-69
2023/09/17 11:36:07;;;;;;;4.82;2.42;;;;;;;;;;5083719;28;20051;-70
2023/09/17 11:38:37;;;;;;;3.08;2.72;;;;;;;;;;5092731;28;20122;-69
2023/09/17 11:41:06;;;;;;;3.80;2.38;;;;;;;;;;5084922;28;20044;-70
2023/09/17 11:43:36;;;;;;;4.72;2.70;;;;;;;;;;5090826;28;20047;-69
2023/09/17 11:46:05;;;;;;;4.10;3.03;;;;;;;;;;5097760;28;20127;-69
2023/09/17 11:48:36;;;;;;;4.28;2.60;;;;;;;;;;5111285;28;20050;-69
2023/09/17 11:51:31;;;;;;;4.15;2.88;;;;;;;;;;5091168;28;20071;-70
2023/09/17 11:54:02;;;;;;;5.68;2.60;;;;;;;;;;5069364;28;20075;-70
2023/09/17 11:56:32;;;;;;;3.05;2.17;;;;;;;;;;5072732;28;20052;-68
2023/09/17 11:59:01;;;;;;;2.97;2.63;;;;;;;;;;5090127;28;20507;-69
2023/09/17 12:01:31;;;;;;;3.00;2.33;;;;;;;;;;5086165;28;20061;-68
2023/09/17 12:04:00;;;;;;;3.60;2.60;;;;;;;;;;5098628;28;20100;-68
2023/09/17 12:06:29;;;;;;;3.22;2.22;;;;;;;;;;5084664;28;20054;-68
2023/09/17 12:09:05;;;;;;;3.35;2.60;;;;;;;;;;5078674;28;20079;-68
2023/09/17 12:11:35;;;;;;;2.80;2.40;;;;;;;;;;5081377;28;20060;-65
2023/09/17 12:14:06;;;;;;;3.22;2.42;;;;;;;;;;5075544;28;20290;-66
2023/09/17 12:16:35;;;;;;;3.38;2.50;;;;;;;;;;5078383;28;20550;-64
2023/09/17 12:19:04;;;;;;;3.45;2.55;;;;;;;;;;5087357;28;20071;-69
2023/09/17 12:21:47;;;;;;;3.60;2.67;;;;;;;;;;5081823;28;20050;-67
2023/09/17 12:24:25;;;;;;;3.85;2.40;;;;;;;;;;5085339;28;20082;-66
2023/09/17 12:29:54;;;;;;;2.60;2.20;;;;;;;;;;5061263;28;20484;-67
2023/09/17 12:32:25;;;;;;;4.07;2.53;;;;;;;;;;5081462;28;20523;-67
2023/09/17 12:34:54;;;;;;;3.10;2.45;;;;;;;;;;5075265;28;20048;-67
2023/09/17 12:37:23;;;;;;;3.33;2.60;;;;;;;;;;5070197;28;20044;-69
2023/09/17 12:39:52;;;;;;;4.28;2.75;;;;;;;;;;5076024;28;20854;-66
2023/09/17 12:42:22;;;;;;;3.95;2.58;;;;;;;;;;5090384;28;20055;-66
2023/09/17 12:44:51;;;;;;;2.88;2.17;;;;;;;;;;5091486;28;20689;-66
2023/09/17 12:47:19;;;;;;;3.55;2.75;;;;;;;;;;5089360;28;20496;-68
2023/09/17 12:49:48;;;;;;;4.53;2.70;;;;;;;;;;5076429;28;20044;-67
2023/09/17 12:52:17;;;;;;;5.30;2.50;;;;;;;;;;5085073;28;20175;-66
2023/09/17 12:54:45;;;;;;;3.08;2.42;;;;;;;;;;5088681;28;20052;-66
2023/09/17 12:57:14;;;;;;;3.85;2.50;;;;;;;;;;5080615;28;20051;-66
2023/09/17 12:59:45;;;;;;;4.00;2.78;;;;;;;;;;5084724;28;20347;-67
2023/09/17 13:02:14;;;;;;;4.55;2.78;;;;;;;;;;5079486;28;20479;-66
2023/09/17 13:04:43;;;;;;;3.22;2.40;;;;;;;;;;5080899;28;20079;-69
2023/09/17 13:07:15;;;;;;;3.30;2.60;;;;;;;;;;5079978;28;20048;-66
2023/09/17 13:09:44;;;;;;;3.53;2.25;;;;;;;;;;5073214;28;20052;-66
2023/09/17 13:12:13;;;;;;;3.72;2.72;;;;;;;;;;5076206;28;20055;-66
2023/09/17 13:14:41;;;;;;;3.63;2.45;;;;;;;;;;5084238;28;20534;-67
2023/09/17 13:17:11;;;;;;;2.50;2.30;;;;;;;;;;5078412;28;20114;-66
2023/09/17 13:19:39;;;;;;;3.88;2.53;;;;;;;;;;5086766;28;20046;-68
2023/09/17 13:22:08;;;;;;;3.53;2.60;;;;;;;;;;5076286;28;20682;-66
2023/09/17 13:24:36;;;;;;;4.05;2.30;;;;;;;;;;5079188;28;20500;-68
2023/09/17 13:27:05;;;;;;;4.18;2.58;;;;;;;;;;5085043;28;20051;-67
2023/09/17 13:29:36;;;;;;;3.60;2.67;;;;;;;;;;5072969;28;20111;-66
2023/09/17 13:32:04;;;;;;;4.18;2.40;;;;;;;;;;5078275;28;20056;-67
2023/09/17 13:34:35;;;;;;;6.75;3.03;;;;;;;;;;5084728;28;20060;-66
2023/09/17 13:37:04;;;;;;;2.72;2.13;;;;;;;;;;5076508;28;20059;-66
2023/09/17 13:39:33;;;;;;;3.92;2.20;;;;;;;;;;5066189;28;20481;-67
2023/09/17 13:42:01;;;;;;;3.00;2.15;;;;;;;;;;5091719;28;20079;-66
2023/09/17 13:44:30;;;;;;;4.82;2.70;;;;;;;;;;5076125;28;20528;-65
2023/09/17 13:46:59;;;;;;;3.50;2.53;;;;;;;;;;5068047;28;20167;-67
2023/09/17 13:49:28;;;;;;;2.95;2.55;;;;;;;;;;5067455;28;20861;-66
2023/09/17 13:51:57;;;;;;;3.58;2.28;;;;;;;;;;5070183;28;20052;-67
2023/09/17 13:54:26;;;;;;;3.38;2.40;;;;;;;;;;5069216;28;20128;-69
2023/09/17 13:56:54;;;;;;;3.78;2.33;;;;;;;;;;5066734;28;20087;-67
2023/09/17 13:59:22;;;;;;;3.90;2.53;;;;;;;;;;5067282;28;20059;-69
2023/09/17 14:01:51;;;;;;;3.13;2.28;;;;;;;;;;5064825;28;20052;-68
2023/09/17 14:04:19;;;;;;;2.83;2.20;;;;;;;;;;5072482;28;20044;-66
2023/09/17 14:06:51;;;;;;;2.22;2.03;;;;;;;;;;5069089;28;20494;-67
2023/09/17 14:09:21;;;;;;;2.80;2.17;;;;;;;;;;5076649;28;20420;-70
2023/09/17 14:11:49;;;;;;;2.85;2.08;;;;;;;;;;5082027;28;20164;-66
2023/09/17 14:14:18;;;;;;;4.97;1.95;;;;;;;;;;5088034;28;20435;-66
2023/09/17 14:16:46;;;;;;;2.90;2.03;;;;;;;;;;5089230;28;20130;-67
2023/09/17 14:19:17;;;;;;;4.53;2.00;;;;;;;;;;5091363;28;20502;-65
2023/09/17 14:21:47;;;;;;;4.32;1.80;;;;;;;;;;5085083;28;20056;-67
2023/09/17 14:24:16;;;;;;;2.85;2.17;;;;;;;;;;5073520;28;20101;-67
2023/09/17 14:26:46;;;;;;;2.65;2.03;;;;;;;;;;5085000;28;20120;-67
2023/09/17 14:29:14;;;;;;;4.63;2.35;;;;;;;;;;5092391;28;20036;-65
2023/09/17 14:31:43;;;;;;;3.58;2.05;;;;;;;;;;5076593;28;20282;-65
2023/09/17 14:34:12;;;;;;;4.05;2.00;;;;;;;;;;5086356;28;20481;-64
2023/09/17 14:36:40;;;;;;;3.28;2.20;;;;;;;;;;5102747;28;20112;-64
2023/09/17 14:39:09;;;;;;;2.60;1.83;;;;;;;;;;5085309;28;20063;-64
2023/09/17 14:41:39;;;;;;;3.30;2.10;;;;;;;;;;5075058;28;20044;-66
2023/09/17 14:44:09;;;;;;;3.50;2.60;;;;;;;;;;5076289;28;20129;-65
2023/09/17 14:46:38;;;;;;;2.30;1.70;;;;;;;;;;5088329;28;20051;-65
2023/09/17 14:49:07;;;;;;;3.70;2.10;;;;;;;;;;5094881;28;20053;-67
2023/09/17 14:51:35;;;;;;;2.45;1.80;;;;;;;;;;5095224;28;20500;-65
2023/09/17 14:54:05;;;;;;;2.45;1.83;;;;;;;;;;5093455;28;20447;-65
2023/09/17 14:56:34;;;;;;;4.25;1.85;;;;;;;;;;5080847;28;20488;-66